createdAt,value
2022-12-26T00:04:49.051Z,97873.63
2022-12-26T00:09:50.420Z,97864.66
2022-12-26T00:14:52.220Z,97880.06
2022-12-26T00:19:53.970Z,97858.31
2022-12-26T00:24:55.946Z,97865.59
2022-12-26T00:29:57.776Z,97872.84
2022-12-26T00:34:59.640Z,97866.50
2022-12-26T00:40:01.475Z,97861.59
2022-12-26T00:45:03.824Z,97862.22
2022-12-26T00:50:12.298Z,97861.41
2022-12-26T00:55:17.367Z,97857.19
2022-12-26T01:00:19.219Z,97840.63
2022-12-26T01:05:24.313Z,97851.81
2022-12-26T01:10:26.975Z,97856.22
2022-12-26T01:15:28.873Z,97855.22
2022-12-26T01:20:30.900Z,97861.06
2022-12-26T01:25:32.744Z,97861.50
2022-12-26T01:30:34.634Z,97837.94
2022-12-26T01:35:36.492Z,97848.00
2022-12-26T01:40:43.505Z,97839.66
2022-12-26T01:45:51.205Z,97840.91
2022-12-26T01:50:58.348Z,97844.59
2022-12-26T01:56:04.716Z,97836.09
2022-12-26T02:01:08.395Z,97840.47
2022-12-26T02:06:13.079Z,97842.44
2022-12-26T02:11:24.073Z,97832.22
2022-12-26T02:16:27.293Z,97827.22
2022-12-26T02:21:32.136Z,97830.97
2022-12-26T02:26:52.119Z,97824.53
2022-12-26T02:32:10.014Z,97845.03
2022-12-26T02:37:24.012Z,97844.59
2022-12-26T02:42:39.103Z,97834.53
2022-12-26T02:48:10.606Z,97837.31
2022-12-26T02:53:47.017Z,97843.31
2022-12-26T02:59:54.036Z,97833.38
2022-12-26T03:05:18.325Z,97835.00
2022-12-26T03:10:43.924Z,97833.22
2022-12-26T03:16:13.972Z,97822.38
2022-12-26T03:21:20.273Z,97825.31
2022-12-26T03:26:41.114Z,97831.50
2022-12-26T03:31:42.961Z,97825.94
2022-12-26T03:37:20.487Z,97830.78
2022-12-26T03:43:05.131Z,97834.00
2022-12-26T03:48:47.577Z,97827.66
2022-12-26T03:54:34.911Z,97830.25
2022-12-26T04:00:17.338Z,97842.44
2022-12-26T04:05:38.265Z,97851.22
2022-12-26T04:11:02.664Z,97872.53
2022-12-26T04:17:02.013Z,97879.50
2022-12-26T04:22:26.507Z,97881.94
2022-12-26T04:27:50.106Z,97891.69
2022-12-26T04:33:16.407Z,97902.72
2022-12-26T04:38:41.391Z,97891.16
2022-12-26T04:44:03.297Z,97881.84
2022-12-26T04:49:26.346Z,97881.69
2022-12-26T04:54:28.608Z,97886.44
2022-12-26T04:59:30.560Z,97891.97
2022-12-26T05:04:51.049Z,97889.56
2022-12-26T05:09:53.834Z,97875.75
2022-12-26T05:14:55.772Z,97873.63
2022-12-26T05:20:16.470Z,97879.09
2022-12-26T05:25:47.462Z,97883.94
2022-12-26T05:30:49.735Z,97867.34
2022-12-26T05:40:53.489Z,97873.19
2022-12-26T05:45:55.430Z,97868.78
2022-12-26T05:51:01.642Z,97876.41
2022-12-26T05:56:10.326Z,97857.06
2022-12-26T06:01:15.083Z,97858.22
2022-12-26T06:06:17.611Z,97860.53
2022-12-26T06:16:23.092Z,97848.00
2022-12-26T06:21:25.283Z,97839.41
2022-12-26T06:26:27.196Z,97831.59
2022-12-26T06:31:29.067Z,97838.59
2022-12-26T06:36:30.881Z,97832.59
2022-12-26T06:41:32.654Z,97841.00
2022-12-26T06:46:34.610Z,97845.84
2022-12-26T06:51:36.565Z,97884.81
2022-12-26T06:56:38.647Z,97887.25
2022-12-26T07:01:40.715Z,97897.81
2022-12-26T07:06:42.894Z,97905.63
2022-12-26T07:11:50.205Z,97903.56
2022-12-26T07:16:52.215Z,97910.09
2022-12-26T07:21:54.189Z,97909.63
2022-12-26T07:26:56.068Z,97908.38
2022-12-26T07:31:59.226Z,97905.13
2022-12-26T07:37:01.108Z,97910.69
2022-12-26T07:42:02.928Z,97919.00
2022-12-26T07:47:05.220Z,97928.75
2022-12-26T07:52:07.062Z,97918.38
2022-12-26T07:57:46.379Z,97926.97
2022-12-26T08:02:32.110Z,97949.38
2022-12-26T08:07:34.013Z,97936.38
2022-12-26T08:12:36.850Z,97942.84
2022-12-26T08:17:38.949Z,97939.38
2022-12-26T08:22:40.815Z,97928.09
2022-12-26T08:27:42.912Z,97950.88
2022-12-26T08:32:46.366Z,97932.44
2022-12-26T08:37:48.485Z,97936.94
2022-12-26T08:43:12.094Z,97926.03
2022-12-26T08:48:12.387Z,97927.28
2022-12-26T08:53:14.109Z,97938.94
2022-12-26T08:58:16.103Z,97939.38
2022-12-26T09:03:18.323Z,97934.44
2022-12-26T09:08:20.167Z,97929.88
2022-12-26T09:13:22.174Z,97938.94
2022-12-26T09:18:24.011Z,97940.63
2022-12-26T09:23:25.830Z,97951.22
2022-12-26T09:28:27.801Z,97954.44
2022-12-26T09:33:33.365Z,97956.75
2022-12-26T09:38:36.622Z,97957.00
2022-12-26T09:43:50.359Z,97963.91
2022-12-26T09:49:01.849Z,97950.59
2022-12-26T09:54:07.987Z,97956.50
2022-12-26T09:59:24.437Z,97945.47
2022-12-26T10:04:30.558Z,97938.00
2022-12-26T10:09:44.799Z,97929.94
2022-12-26T10:15:02.943Z,97919.28
2022-12-26T10:20:44.293Z,97938.31
2022-12-26T10:25:51.996Z,97948.91
2022-12-26T10:30:57.929Z,97940.84
2022-12-26T10:36:00.433Z,97927.19
2022-12-26T10:41:14.725Z,97930.00
2022-12-26T10:46:28.376Z,97922.19
2022-12-26T10:51:30.687Z,97912.56
2022-12-26T10:56:32.539Z,97909.78
2022-12-26T11:01:47.304Z,97924.03
2022-12-26T11:06:52.885Z,97928.09
2022-12-26T11:11:54.873Z,97917.13
2022-12-26T11:17:03.379Z,97923.75
2022-12-26T11:22:28.641Z,97915.56
2022-12-26T11:27:30.473Z,97919.41
2022-12-26T11:32:32.630Z,97924.88
2022-12-26T11:37:41.805Z,97924.69
2022-12-26T11:42:48.231Z,97926.69
2022-12-26T11:47:50.981Z,97924.44
2022-12-26T11:52:55.546Z,97897.34
2022-12-26T11:58:09.582Z,97887.31
2022-12-26T12:03:16.134Z,97899.88
2022-12-26T12:08:39.121Z,97907.25
2022-12-26T12:13:44.108Z,97906.81
2022-12-26T12:18:51.872Z,97908.34
2022-12-26T12:24:04.123Z,97911.16
2022-12-26T12:29:43.851Z,97903.25
2022-12-26T12:35:19.614Z,97896.19
2022-12-26T12:40:24.668Z,97891.34
2022-12-26T12:45:59.024Z,97887.13
2022-12-26T12:51:34.531Z,97893.34
2022-12-26T12:56:42.459Z,97881.50
2022-12-26T13:01:49.948Z,97897.28
2022-12-26T13:07:33.279Z,97911.28
2022-12-26T13:12:41.974Z,97934.06
2022-12-26T13:17:55.186Z,97951.66
2022-12-26T13:23:22.877Z,97998.59
2022-12-26T13:28:31.960Z,97976.16
2022-12-26T13:33:34.872Z,97972.13
2022-12-26T13:38:58.653Z,97964.94
2022-12-26T13:44:20.749Z,97956.03
2022-12-26T13:49:27.269Z,97966.16
2022-12-26T13:54:30.099Z,97971.06
2022-12-26T13:59:58.112Z,97949.03
2022-12-26T14:05:23.064Z,97970.31
2022-12-26T14:11:02.091Z,97956.06
2022-12-26T14:16:16.557Z,97966.00
2022-12-26T14:21:27.202Z,97960.97
2022-12-26T14:26:51.845Z,97964.38
2022-12-26T14:32:12.283Z,97966.34
2022-12-26T14:37:41.298Z,97956.94
2022-12-26T14:43:12.919Z,97968.31
2022-12-26T14:48:17.804Z,97978.88
2022-12-26T14:53:28.370Z,97992.03
2022-12-26T14:58:39.053Z,97989.44
2022-12-26T15:04:05.498Z,97992.03
2022-12-26T15:09:07.307Z,97994.16
2022-12-26T15:14:09.210Z,98000.50
2022-12-26T15:19:29.158Z,98007.03
2022-12-26T15:25:17.662Z,98009.31
2022-12-26T15:30:32.506Z,98010.19
2022-12-26T15:35:36.573Z,97999.50
2022-12-26T15:40:45.190Z,98013.63
2022-12-26T15:46:14.478Z,98018.19
2022-12-26T15:51:55.882Z,98024.69
2022-12-26T15:57:03.874Z,98025.50
2022-12-26T16:02:39.524Z,98009.13
2022-12-26T16:07:52.663Z,98011.88
2022-12-26T16:13:03.633Z,98025.03
2022-12-26T16:18:32.929Z,98015.97
2022-12-26T16:23:38.220Z,98022.47
2022-12-26T16:28:44.557Z,98033.00
2022-12-26T16:33:47.482Z,98034.00
2022-12-26T16:38:50.551Z,98035.59
2022-12-26T16:43:54.460Z,98024.09
2022-12-26T16:49:00.371Z,98031.06
2022-12-26T16:54:22.763Z,98034.97
2022-12-26T16:59:28.357Z,98026.06
2022-12-26T17:04:31.083Z,98033.53
2022-12-26T17:09:43.605Z,98029.34
2022-12-26T17:14:48.912Z,98032.91
2022-12-26T17:19:54.351Z,98035.34
2022-12-26T17:25:26.633Z,98018.78
2022-12-26T17:30:31.773Z,98014.41
2022-12-26T17:36:21.301Z,98021.84
2022-12-26T17:41:01.550Z,98020.06
2022-12-26T17:46:05.384Z,98026.06
2022-12-26T17:51:12.487Z,98016.34
2022-12-26T17:56:17.706Z,98025.56
2022-12-26T18:01:21.930Z,98022.81
2022-12-26T18:06:24.400Z,98021.81
2022-12-26T18:11:26.299Z,98033.81
2022-12-26T18:16:29.731Z,98019.06
2022-12-26T18:21:31.571Z,98010.47
2022-12-26T18:26:33.469Z,97993.91
2022-12-26T18:31:35.372Z,98010.47
2022-12-26T18:36:41.201Z,98032.19
2022-12-26T18:41:43.618Z,98038.38
2022-12-26T18:46:45.863Z,98030.28
2022-12-26T18:51:47.645Z,98033.38
2022-12-26T18:56:49.446Z,98016.53
2022-12-26T19:01:51.437Z,98007.28
2022-12-26T19:06:53.502Z,97998.22
2022-12-26T19:11:55.405Z,97993.53
2022-12-26T19:16:57.278Z,98005.59
2022-12-26T19:21:59.315Z,98003.34
2022-12-26T19:27:02.355Z,98003.03
2022-12-26T19:32:04.562Z,98002.72
2022-12-26T19:37:06.390Z,98013.38
2022-12-26T19:42:08.168Z,98000.94
2022-12-26T19:47:12.629Z,97991.69
2022-12-26T19:52:15.109Z,97999.00
2022-12-26T19:57:16.961Z,98005.97
2022-12-26T20:02:18.971Z,98018.13
2022-12-26T20:07:20.956Z,98036.25
2022-12-26T20:12:22.978Z,98061.22
2022-12-26T20:17:24.936Z,98087.94
2022-12-26T20:22:27.270Z,98102.69
2022-12-26T20:27:29.082Z,98117.91
2022-12-26T20:32:30.854Z,98146.44
2022-12-26T20:37:32.820Z,98147.56
2022-12-26T20:42:34.582Z,98150.78
2022-12-26T20:47:36.337Z,98145.28
2022-12-26T20:52:38.104Z,98131.34
2022-12-26T20:57:39.846Z,98083.41
2022-12-26T21:02:41.670Z,98075.94
2022-12-26T21:07:43.612Z,98094.25
2022-12-26T21:12:45.871Z,98131.63
2022-12-26T21:17:47.933Z,98162.06
2022-12-26T21:22:49.753Z,98159.78
2022-12-26T21:27:56.090Z,98150.56
2022-12-26T21:33:00.911Z,98166.25
2022-12-26T21:38:02.833Z,98174.03
2022-12-26T21:43:04.719Z,98176.94
2022-12-26T21:48:07.059Z,98210.41
2022-12-26T21:53:10.280Z,98214.91
2022-12-26T21:58:12.328Z,98238.94
2022-12-26T22:03:32.608Z,98253.53
2022-12-26T22:08:34.453Z,98278.41
2022-12-26T22:13:42.348Z,98287.81
2022-12-26T22:18:47.282Z,98296.25
2022-12-26T22:23:50.722Z,98305.19
2022-12-26T22:28:52.531Z,98323.06
2022-12-26T22:34:05.381Z,98319.94
2022-12-26T22:39:07.422Z,98337.00
2022-12-26T22:44:09.942Z,98355.13
2022-12-26T22:49:12.101Z,98362.66
2022-12-26T22:54:14.624Z,98379.16
2022-12-26T22:59:41.255Z,98391.16
2022-12-26T23:04:38.686Z,98404.41
2022-12-26T23:09:40.684Z,98409.31
2022-12-26T23:14:42.627Z,98432.16
2022-12-26T23:20:10.632Z,98436.13
2022-12-26T23:25:12.544Z,98454.59
2022-12-26T23:30:20.469Z,98453.66
2022-12-26T23:35:22.876Z,98462.78
2022-12-26T23:40:24.776Z,98471.47
2022-12-26T23:45:26.639Z,98475.28
2022-12-26T23:50:28.849Z,98483.84
2022-12-26T23:55:30.651Z,98488.31
